Time;durP1;ratioP1;P1;durP2;ratioP2;P2;SDS_P1;SDS_P2;PMS_P1;PMS_P2;Temp;Humidity;BMP_temperature;BMP_pressure;BME280_temperature;BME280_humidity;BME280_pressure;Samples;Min_cycle;Max_cycle;Signal;HPM_P1;HPM_P2
2023/08/03 00:00:38;;;;;;;1.40;0.98;;;21.80;74.00;;;;;;5024051;28;20064;-71
2023/08/03 00:03:04;;;;;;;1.27;0.70;;;21.80;74.00;;;;;;5023347;28;20526;-71
2023/08/03 00:05:30;;;;;;;1.73;0.85;;;21.80;74.10;;;;;;5024969;28;20118;-71
2023/08/03 00:07:55;;;;;;;1.85;0.88;;;21.80;74.20;;;;;;5024125;28;20515;-71
2023/08/03 00:10:21;;;;;;;1.52;1.10;;;21.80;74.30;;;;;;5023771;28;20265;-71
2023/08/03 00:12:47;;;;;;;2.80;1.10;;;21.80;74.30;;;;;;5005200;28;20046;-72
2023/08/03 00:15:13;;;;;;;1.48;0.52;;;21.80;74.30;;;;;;5023456;28;20407;-71
2023/08/03 00:17:39;;;;;;;2.50;1.00;;;21.80;74.00;;;;;;5024663;28;20557;-71
2023/08/03 00:20:05;;;;;;;1.00;0.80;;;21.80;74.20;;;;;;5007563;28;20046;-71
2023/08/03 00:22:32;;;;;;;2.50;0.70;;;21.80;74.10;;;;;;5007556;28;20038;-72
2023/08/03 00:25:00;;;;;;;1.52;0.90;;;21.80;74.00;;;;;;5023791;28;20049;-71
2023/08/03 00:27:26;;;;;;;1.50;0.93;;;21.80;74.20;;;;;;5024331;28;20057;-72
2023/08/03 00:29:52;;;;;;;0.90;0.70;;;21.80;73.90;;;;;;5007917;28;20045;-72
2023/08/03 00:32:17;;;;;;;1.27;1.00;;;21.80;74.00;;;;;;5025739;28;20041;-71
2023/08/03 00:34:43;;;;;;;2.22;0.88;;;21.80;74.00;;;;;;5022274;28;20124;-73
2023/08/03 00:37:10;;;;;;;1.95;0.70;;;21.80;73.90;;;;;;5022484;28;20406;-71
2023/08/03 00:39:35;;;;;;;3.30;1.10;;;21.80;74.00;;;;;;5021153;28;20044;-71
2023/08/03 00:42:01;;;;;;;1.10;0.80;;;21.80;74.00;;;;;;5023602;28;20041;-71
2023/08/03 00:44:27;;;;;;;0.95;0.80;;;21.80;74.00;;;;;;5025710;28;20033;-71
2023/08/03 00:46:52;;;;;;;1.23;0.95;;;21.80;74.10;;;;;;5021723;28;20407;-72
2023/08/03 00:49:18;;;;;;;1.15;0.80;;;21.80;74.00;;;;;;5007951;28;20067;-71
2023/08/03 00:51:43;;;;;;;1.35;0.95;;;21.80;74.10;;;;;;5021552;28;20499;-71
2023/08/03 00:54:09;;;;;;;1.17;0.88;;;21.80;74.10;;;;;;5005496;28;20419;-72
2023/08/03 00:56:35;;;;;;;2.17;0.90;;;21.80;75.00;;;;;;5021566;28;20037;-71
2023/08/03 00:59:04;;;;;;;1.90;0.90;;;21.80;74.20;;;;;;5023336;28;20037;-71
2023/08/03 01:01:30;;;;;;;1.25;0.73;;;21.80;75.00;;;;;;5020959;28;22199;-71
2023/08/03 01:03:56;;;;;;;1.42;0.75;;;21.80;74.10;;;;;;5021546;28;20049;-72
2023/08/03 01:06:22;;;;;;;1.08;0.90;;;21.80;74.20;;;;;;5008111;28;20060;-71
2023/08/03 01:08:47;;;;;;;1.30;1.00;;;21.80;74.20;;;;;;5022980;28;20033;-72
2023/08/03 01:11:13;;;;;;;0.82;0.70;;;21.80;74.20;;;;;;5022939;28;20041;-71
2023/08/03 01:13:39;;;;;;;1.30;0.80;;;21.80;74.20;;;;;;5019876;28;20037;-71
2023/08/03 01:16:06;;;;;;;0.82;0.80;;;21.80;74.10;;;;;;5004264;28;20499;-72
2023/08/03 01:18:32;;;;;;;0.63;0.60;;;21.80;74.10;;;;;;5023194;28;20034;-71
2023/08/03 01:20:57;;;;;;;1.00;0.80;;;21.80;74.00;;;;;;5022741;28;20029;-71
2023/08/03 01:23:23;;;;;;;0.90;0.70;;;21.80;74.00;;;;;;5037265;28;21315;-72
2023/08/03 01:25:48;;;;;;;0.88;0.80;;;21.80;74.10;;;;;;5022774;28;20525;-72
2023/08/03 01:28:14;;;;;;;0.70;0.70;;;21.80;74.30;;;;;;5024856;28;20033;-71
2023/08/03 01:30:39;;;;;;;0.50;0.50;;;21.80;74.00;;;;;;5022382;28;20041;-71
2023/08/03 01:33:05;;;;;;;1.50;0.70;;;21.80;74.10;;;;;;5020926;28;20030;-71
2023/08/03 01:35:31;;;;;;;1.02;0.73;;;21.80;74.00;;;;;;5022610;28;20396;-71
2023/08/03 01:37:56;;;;;;;0.65;0.65;;;21.80;74.40;;;;;;5022572;28;20128;-71
2023/08/03 01:40:22;;;;;;;0.95;0.57;;;21.80;74.30;;;;;;5021273;28;20133;-71
2023/08/03 01:42:47;;;;;;;1.58;0.65;;;21.80;74.40;;;;;;5021057;28;20121;-73
2023/08/03 01:45:13;;;;;;;1.25;0.88;;;21.80;74.60;;;;;;5020817;28;20495;-72
2023/08/03 01:47:38;;;;;;;0.90;0.57;;;21.80;75.50;;;;;;5024025;28;20041;-71
2023/08/03 01:50:04;;;;;;;3.00;0.80;;;21.80;75.40;;;;;;5023092;28;20029;-71
2023/08/03 01:52:30;;;;;;;0.43;0.43;;;21.80;75.50;;;;;;5024745;28;20443;-71
2023/08/03 01:54:55;;;;;;;1.30;0.70;;;21.80;75.50;;;;;;5024828;28;20407;-72
2023/08/03 01:57:21;;;;;;;1.58;0.70;;;21.80;75.40;;;;;;4989291;28;20037;-71
2023/08/03 01:59:46;;;;;;;0.88;0.40;;;21.80;75.20;;;;;;5027718;28;20034;-71
2023/08/03 02:02:12;;;;;;;0.90;0.77;;;21.80;74.90;;;;;;5027631;28;20743;-71
2023/08/03 02:04:38;;;;;;;0.57;0.55;;;21.80;74.90;;;;;;5026675;28;20049;-71
2023/08/03 02:07:16;;;;;;;0.88;0.70;;;21.80;74.80;;;;;;5026795;28;20034;-71
2023/08/03 02:09:41;;;;;;;1.73;1.00;;;21.90;74.80;;;;;;5025544;28;20033;-71
2023/08/03 02:12:07;;;;;;;0.65;0.52;;;21.80;74.80;;;;;;5026165;28;20049;-71
2023/08/03 02:14:33;;;;;;;1.13;1.02;;;21.90;74.70;;;;;;5026361;28;20100;-71
2023/08/03 02:16:58;;;;;;;1.00;0.90;;;21.90;74.70;;;;;;5025884;28;21447;-71
2023/08/03 02:19:24;;;;;;;0.60;0.50;;;21.80;74.70;;;;;;5027440;28;20040;-71
2023/08/03 02:21:50;;;;;;;1.65;1.02;;;21.80;74.90;;;;;;5024257;28;20052;-72
2023/08/03 02:24:15;;;;;;;0.60;0.52;;;21.80;74.60;;;;;;5025921;28;20445;-71
2023/08/03 02:26:41;;;;;;;1.10;0.73;;;21.80;74.80;;;;;;5028042;28;20178;-71
2023/08/03 02:29:06;;;;;;;0.60;0.60;;;21.80;74.70;;;;;;5024663;28;20037;-72
2023/08/03 02:31:32;;;;;;;1.00;0.70;;;21.80;74.90;;;;;;5026499;28;20124;-71
2023/08/03 02:33:57;;;;;;;1.08;0.98;;;21.90;74.70;;;;;;5026122;28;20048;-72
2023/08/03 02:36:23;;;;;;;0.65;0.45;;;21.80;74.60;;;;;;5024730;28;20065;-71
2023/08/03 02:38:48;;;;;;;0.75;0.40;;;21.80;74.90;;;;;;5025467;28;20091;-71
2023/08/03 02:41:14;;;;;;;1.80;0.43;;;21.90;74.60;;;;;;5027698;28;20048;-71
2023/08/03 02:43:40;;;;;;;0.65;0.30;;;21.80;74.60;;;;;;5027072;28;20045;-71
2023/08/03 02:46:05;;;;;;;1.88;0.75;;;21.80;74.50;;;;;;5026648;28;20458;-71
2023/08/03 02:48:32;;;;;;;0.98;0.70;;;21.80;74.80;;;;;;5025052;28;20046;-72
2023/08/03 02:50:57;;;;;;;1.05;0.60;;;21.80;74.50;;;;;;5024709;28;20048;-72
2023/08/03 02:53:23;;;;;;;0.95;0.65;;;21.80;74.70;;;;;;5025577;28;20038;-71
2023/08/03 02:55:49;;;;;;;1.85;0.60;;;21.80;74.70;;;;;;5026116;28;20061;-71
2023/08/03 02:58:14;;;;;;;0.82;0.65;;;21.80;74.90;;;;;;5022236;28;20087;-71
2023/08/03 03:00:40;;;;;;;0.80;0.57;;;21.80;74.70;;;;;;5024841;28;20046;-71
2023/08/03 03:03:06;;;;;;;0.93;0.65;;;21.80;74.70;;;;;;5023205;28;20053;-71
2023/08/03 03:05:31;;;;;;;1.02;0.73;;;21.80;74.70;;;;;;5026111;28;20060;-72
2023/08/03 03:07:57;;;;;;;0.50;0.47;;;21.80;74.60;;;;;;5025422;28;20124;-72
2023/08/03 03:10:23;;;;;;;0.75;0.55;;;21.80;74.80;;;;;;5025139;28;20069;-71
2023/08/03 03:12:49;;;;;;;0.80;0.50;;;21.80;74.80;;;;;;5025394;28;20092;-71
2023/08/03 03:15:14;;;;;;;0.68;0.43;;;21.80;74.70;;;;;;5023292;28;20073;-71
2023/08/03 03:17:42;;;;;;;0.85;0.68;;;21.80;74.70;;;;;;5025936;28;20136;-71
2023/08/03 03:20:08;;;;;;;0.75;0.68;;;21.80;74.80;;;;;;5024232;28;20384;-71
2023/08/03 03:22:35;;;;;;;1.08;0.60;;;21.80;74.70;;;;;;5025721;28;20077;-72
2023/08/03 03:25:04;;;;;;;0.60;0.55;;;21.80;74.50;;;;;;5024245;28;20041;-71
2023/08/03 03:27:29;;;;;;;0.90;0.50;;;21.80;74.60;;;;;;5023822;28;20546;-72
2023/08/03 03:29:55;;;;;;;2.17;0.80;;;21.80;74.40;;;;;;5009200;28;20049;-72
2023/08/03 03:32:20;;;;;;;0.68;0.60;;;21.80;74.50;;;;;;5025442;28;20068;-71
2023/08/03 03:34:46;;;;;;;1.38;0.70;;;21.80;74.40;;;;;;5025060;28;20141;-71
2023/08/03 03:37:11;;;;;;;0.93;0.52;;;21.80;74.40;;;;;;5025100;28;20442;-71
2023/08/03 03:39:37;;;;;;;0.77;0.60;;;21.80;74.50;;;;;;5024114;28;20047;-71
2023/08/03 03:42:03;;;;;;;0.82;0.70;;;21.80;74.40;;;;;;5023942;28;20066;-72
2023/08/03 03:44:28;;;;;;;1.45;0.90;;;21.80;74.40;;;;;;5023468;28;20549;-71
2023/08/03 03:46:54;;;;;;;0.60;0.60;;;21.80;74.60;;;;;;5025283;28;20406;-74
2023/08/03 03:49:19;;;;;;;0.50;0.30;;;21.80;74.50;;;;;;5023752;28;20098;-72
2023/08/03 03:51:45;;;;;;;0.60;0.40;;;21.80;74.40;;;;;;5023860;28;20048;-71
2023/08/03 03:54:11;;;;;;;0.85;0.50;;;21.70;74.30;;;;;;5023919;28;20049;-71
2023/08/03 03:56:36;;;;;;;0.55;0.50;;;21.80;74.30;;;;;;5024799;28;20128;-72
2023/08/03 03:59:02;;;;;;;0.95;0.80;;;21.80;74.40;;;;;;5023400;28;20049;-72
2023/08/03 04:01:27;;;;;;;0.40;0.40;;;21.70;74.20;;;;;;5025760;28;20128;-71
2023/08/03 04:03:53;;;;;;;0.63;0.43;;;21.80;74.10;;;;;;5027489;28;20049;-71
2023/08/03 04:06:18;;;;;;;1.05;0.60;;;21.70;74.10;;;;;;5024898;28;20052;-72
2023/08/03 04:08:44;;;;;;;0.47;0.40;;;21.70;74.10;;;;;;5023233;28;20499;-71
2023/08/03 04:11:09;;;;;;;1.02;0.70;;;21.70;74.10;;;;;;5024222;28;20145;-72
2023/08/03 04:13:35;;;;;;;0.68;0.68;;;21.80;74.10;;;;;;5023709;28;20041;-72
2023/08/03 04:16:00;;;;;;;0.38;0.30;;;21.70;74.20;;;;;;5022360;28;20038;-72
2023/08/03 04:18:27;;;;;;;0.40;0.32;;;21.80;74.10;;;;;;5021476;28;20057;-72
2023/08/03 04:20:53;;;;;;;0.80;0.50;;;21.70;74.20;;;;;;5024703;28;20042;-71
2023/08/03 04:23:19;;;;;;;1.13;0.70;;;21.70;74.20;;;;;;5023618;28;20533;-71
2023/08/03 04:25:44;;;;;;;1.80;0.65;;;21.70;74.10;;;;;;5025663;28;20060;-72
2023/08/03 04:28:10;;;;;;;0.60;0.40;;;21.80;74.30;;;;;;5022289;28;20668;-71
2023/08/03 04:30:35;;;;;;;0.60;0.40;;;21.70;75.30;;;;;;5026604;28;20052;-72
2023/08/03 04:33:01;;;;;;;1.17;0.55;;;21.70;74.20;;;;;;5024347;28;20048;-72
2023/08/03 04:35:27;;;;;;;0.82;0.60;;;21.70;74.30;;;;;;5024745;28;20530;-71
2023/08/03 04:37:52;;;;;;;0.45;0.40;;;21.70;74.40;;;;;;5025266;28;20120;-72
2023/08/03 04:40:18;;;;;;;0.70;0.70;;;21.70;74.10;;;;;;5004006;28;20052;-71
2023/08/03 04:42:43;;;;;;;0.82;0.70;;;21.70;73.80;;;;;;5023921;28;20049;-71
2023/08/03 04:45:09;;;;;;;0.40;0.40;;;21.70;73.90;;;;;;5021914;28;20392;-72
2023/08/03 04:47:35;;;;;;;0.75;0.52;;;21.70;74.10;;;;;;5020832;28;20133;-72
2023/08/03 04:50:00;;;;;;;0.50;0.50;;;21.80;74.30;;;;;;5018673;28;20033;-72
2023/08/03 04:52:26;;;;;;;0.52;0.47;;;21.80;74.40;;;;;;5021779;28;20472;-71
2023/08/03 04:54:51;;;;;;;0.75;0.50;;;21.70;74.30;;;;;;5021145;28;20029;-72
2023/08/03 04:57:17;;;;;;;0.70;0.63;;;21.70;74.90;;;;;;5022802;28;20167;-72
2023/08/03 04:59:42;;;;;;;0.55;0.55;;;21.70;74.20;;;;;;5022171;28;20582;-72
2023/08/03 05:02:08;;;;;;;1.27;0.75;;;21.70;74.20;;;;;;5024628;28;20025;-71
2023/08/03 05:04:34;;;;;;;0.82;0.40;;;21.70;74.10;;;;;;5024313;28;20080;-71
2023/08/03 05:06:59;;;;;;;0.65;0.32;;;21.70;74.40;;;;;;5023567;28;20124;-72
2023/08/03 05:09:25;;;;;;;0.70;0.30;;;21.70;74.20;;;;;;5023118;28;20038;-71
2023/08/03 05:11:51;;;;;;;2.25;0.60;;;21.70;74.20;;;;;;5023143;28;20045;-72
2023/08/03 05:14:17;;;;;;;0.50;0.30;;;21.70;74.10;;;;;;5022933;28;20057;-72
2023/08/03 05:16:42;;;;;;;1.08;0.65;;;21.70;74.00;;;;;;5023260;28;20037;-71
2023/08/03 05:19:08;;;;;;;2.63;0.40;;;21.70;74.00;;;;;;5021398;28;20562;-72
2023/08/03 05:21:33;;;;;;;0.50;0.50;;;21.70;74.00;;;;;;5023033;28;20435;-72
2023/08/03 05:23:59;;;;;;;0.47;0.47;;;21.70;74.20;;;;;;5020631;28;20065;-72
2023/08/03 05:26:26;;;;;;;0.60;0.50;;;21.70;74.00;;;;;;5021613;28;20511;-72
2023/08/03 05:28:51;;;;;;;0.90;0.75;;;21.70;74.20;;;;;;5022224;28;20121;-72
2023/08/03 05:31:17;;;;;;;0.55;0.52;;;21.70;74.00;;;;;;5021557;28;20116;-72
2023/08/03 05:33:42;;;;;;;0.93;0.65;;;21.70;74.80;;;;;;5021917;28;20041;-72
2023/08/03 05:36:08;;;;;;;0.50;0.50;;;21.70;73.90;;;;;;5021257;28;20493;-72
2023/08/03 05:38:34;;;;;;;0.70;0.40;;;21.70;73.80;;;;;;5025353;28;20049;-72
2023/08/03 05:40:59;;;;;;;3.40;0.47;;;21.70;74.10;;;;;;5022446;28;20069;-72
2023/08/03 05:43:26;;;;;;;0.20;0.20;;;21.70;74.00;;;;;;5018630;28;21012;-72
2023/08/03 05:45:57;;;;;;;0.40;0.40;;;21.70;74.10;;;;;;5005169;28;20479;-72
2023/08/03 05:48:22;;;;;;;0.47;0.32;;;21.70;74.00;;;;;;5005897;28;20050;-72
2023/08/03 05:50:51;;;;;;;0.43;0.40;;;21.70;73.80;;;;;;5022588;28;20038;-72
2023/08/03 05:53:17;;;;;;;0.47;0.40;;;21.70;73.90;;;;;;5024311;28;20041;-72
2023/08/03 05:55:43;;;;;;;0.50;0.45;;;21.70;73.90;;;;;;4990318;28;20420;-72
2023/08/03 05:58:10;;;;;;;0.63;0.60;;;21.70;73.70;;;;;;5022783;28;20050;-72
2023/08/03 06:00:36;;;;;;;0.85;0.40;;;21.70;73.80;;;;;;5022119;28;20432;-72
2023/08/03 06:03:03;;;;;;;0.55;0.32;;;21.70;73.80;;;;;;5021051;28;20504;-75
2023/08/03 06:05:42;;;;;;;0.38;0.30;;;21.70;73.70;;;;;;5023766;28;20095;-72
2023/08/03 06:08:14;;;;;;;0.50;0.50;;;21.70;74.20;;;;;;5021832;28;20049;-73
2023/08/03 06:10:39;;;;;;;1.98;0.70;;;21.70;73.80;;;;;;5019683;28;20034;-72
2023/08/03 06:13:06;;;;;;;0.60;0.50;;;21.70;73.90;;;;;;5022531;28;20495;-72
2023/08/03 06:15:31;;;;;;;0.90;0.50;;;21.60;73.80;;;;;;5004285;28;20124;-72
2023/08/03 06:18:02;;;;;;;0.95;0.70;;;21.60;73.70;;;;;;5003536;28;20144;-72
2023/08/03 06:20:27;;;;;;;1.30;0.70;;;21.60;73.30;;;;;;5021232;28;20115;-72
2023/08/03 06:22:53;;;;;;;1.77;0.98;;;21.60;73.20;;;;;;5024710;28;20636;-72
2023/08/03 06:25:21;;;;;;;0.75;0.52;;;21.50;73.30;;;;;;5020226;28;20045;-72
2023/08/03 06:27:48;;;;;;;1.23;0.60;;;21.50;73.20;;;;;;5021989;28;20407;-72
2023/08/03 06:30:13;;;;;;;0.77;0.60;;;21.50;73.20;;;;;;5022286;28;20033;-72
2023/08/03 06:32:39;;;;;;;0.50;0.50;;;21.50;73.20;;;;;;5019250;28;20076;-72
2023/08/03 06:35:05;;;;;;;1.75;0.80;;;21.50;73.20;;;;;;5018845;28;20037;-72
2023/08/03 06:37:30;;;;;;;1.08;0.73;;;21.60;73.10;;;;;;5020967;28;20136;-72
2023/08/03 06:39:56;;;;;;;1.40;0.60;;;21.50;72.90;;;;;;5024256;28;20415;-72
2023/08/03 06:42:21;;;;;;;1.30;0.90;;;21.60;72.70;;;;;;5022652;28;20046;-72
2023/08/03 06:44:47;;;;;;;1.30;0.60;;;21.50;72.80;;;;;;5025527;28;20099;-72
2023/08/03 06:47:12;;;;;;;1.17;0.77;;;21.50;72.90;;;;;;5021572;28;20041;-72
2023/08/03 06:49:38;;;;;;;0.70;0.65;;;21.50;73.10;;;;;;5023089;28;20045;-72
2023/08/03 06:52:04;;;;;;;2.88;0.95;;;21.50;72.70;;;;;;5024594;28;20052;-72
2023/08/03 06:54:29;;;;;;;2.65;1.30;;;21.40;72.60;;;;;;5022735;28;20064;-71
2023/08/03 06:56:55;;;;;;;2.78;1.25;;;21.40;72.50;;;;;;5023119;28;20531;-71
2023/08/03 06:59:21;;;;;;;2.42;1.20;;;21.40;72.60;;;;;;5026862;28;20415;-72
2023/08/03 07:01:48;;;;;;;2.80;1.13;;;21.40;72.50;;;;;;5021110;28;20038;-72
2023/08/03 07:04:14;;;;;;;1.23;1.10;;;21.30;72.60;;;;;;5037648;28;20577;-71
2023/08/03 07:06:40;;;;;;;2.72;1.10;;;21.30;72.60;;;;;;5022612;28;20132;-71
2023/08/03 07:09:05;;;;;;;2.65;0.98;;;21.10;73.20;;;;;;5021763;28;20172;-71
2023/08/03 07:11:31;;;;;;;1.42;0.90;;;21.10;73.50;;;;;;5024832;28;20041;-71
2023/08/03 07:13:56;;;;;;;2.05;1.27;;;21.00;73.60;;;;;;5006909;28;20423;-71
2023/08/03 07:16:23;;;;;;;2.28;1.50;;;21.00;73.70;;;;;;5015936;28;20041;-72
2023/08/03 07:18:48;;;;;;;3.58;1.35;;;21.00;74.70;;;;;;5017822;28;20049;-72
2023/08/03 07:21:14;;;;;;;1.95;1.17;;;21.00;74.00;;;;;;4985556;28;20041;-72
2023/08/03 07:23:39;;;;;;;2.17;1.10;;;21.00;74.20;;;;;;5018991;28;20459;-71
2023/08/03 07:26:14;;;;;;;2.63;1.08;;;21.00;74.00;;;;;;5017852;28;20037;-71
2023/08/03 07:28:39;;;;;;;2.85;1.27;;;21.00;73.90;;;;;;5017823;28;20080;-71
2023/08/03 07:31:05;;;;;;;3.10;1.13;;;21.00;74.00;;;;;;5019328;28;20559;-71
2023/08/03 07:33:30;;;;;;;3.22;1.17;;;21.00;74.10;;;;;;5017452;28;20534;-71
2023/08/03 07:35:56;;;;;;;2.20;1.30;;;20.90;74.30;;;;;;5019766;28;20041;-72
2023/08/03 07:38:22;;;;;;;2.30;1.35;;;20.80;74.50;;;;;;5020269;28;20041;-72
2023/08/03 07:40:47;;;;;;;1.70;1.00;;;20.80;74.80;;;;;;5018718;28;20064;-72
2023/08/03 07:43:13;;;;;;;2.85;1.10;;;20.70;75.00;;;;;;5019867;28;20046;-72
2023/08/03 07:45:39;;;;;;;1.30;1.00;;;20.70;75.30;;;;;;5016997;28;20499;-72
2023/08/03 07:48:04;;;;;;;2.40;1.15;;;20.70;75.60;;;;;;5019188;28;20037;-72
2023/08/03 07:50:30;;;;;;;1.70;0.80;;;20.70;75.60;;;;;;5019187;28;20053;-72
2023/08/03 07:52:56;;;;;;;5.93;1.30;;;20.70;75.60;;;;;;5016816;28;20045;-72
2023/08/03 07:55:21;;;;;;;2.03;0.85;;;20.90;75.60;;;;;;5018379;28;20049;-72
2023/08/03 07:57:47;;;;;;;1.20;0.80;;;21.00;75.20;;;;;;5017396;28;20107;-71
2023/08/03 08:00:13;;;;;;;1.98;1.02;;;20.80;75.50;;;;;;5016444;28;20507;-72
2023/08/03 08:02:38;;;;;;;0.90;0.60;;;20.90;75.70;;;;;;5018692;28;20049;-72
2023/08/03 08:05:04;;;;;;;0.98;0.63;;;20.70;76.90;;;;;;5021232;28;20176;-72
2023/08/03 08:07:30;;;;;;;0.85;0.60;;;20.70;76.10;;;;;;5023190;28;20049;-72
2023/08/03 08:09:55;;;;;;;2.63;0.90;;;20.70;76.30;;;;;;5024672;28;20140;-72
2023/08/03 08:12:21;;;;;;;0.90;0.68;;;20.70;75.90;;;;;;5018853;28;20034;-72
2023/08/03 08:14:46;;;;;;;0.75;0.50;;;20.60;76.10;;;;;;5019803;28;20045;-72
2023/08/03 08:17:12;;;;;;;1.20;0.60;;;20.70;75.80;;;;;;5022380;28;20404;-72
2023/08/03 08:19:38;;;;;;;1.55;0.70;;;20.80;75.70;;;;;;5023430;28;20046;-72
2023/08/03 08:22:03;;;;;;;1.13;0.50;;;20.80;75.70;;;;;;5021122;28;20470;-72
2023/08/03 08:24:29;;;;;;;1.95;0.90;;;20.70;75.90;;;;;;5023647;28;20120;-72
2023/08/03 08:26:55;;;;;;;1.20;0.52;;;20.80;75.90;;;;;;5023625;28;20056;-72
2023/08/03 08:29:20;;;;;;;0.40;0.40;;;20.70;76.10;;;;;;5022990;28;20527;-72
2023/08/03 08:31:46;;;;;;;1.30;0.55;;;20.70;76.50;;;;;;5020994;28;20037;-72
2023/08/03 08:34:11;;;;;;;1.50;0.40;;;20.60;76.80;;;;;;5018984;28;20060;-73
2023/08/03 08:36:37;;;;;;;2.40;0.40;;;20.60;77.60;;;;;;5022723;28;20518;-72
2023/08/03 08:39:03;;;;;;;1.17;0.60;;;20.60;77.00;;;;;;5019588;28;20120;-71
2023/08/03 08:41:28;;;;;;;0.88;0.47;;;20.70;76.60;;;;;;5005783;28;20038;-72
2023/08/03 08:43:54;;;;;;;3.40;0.82;;;20.60;77.60;;;;;;5023442;28;20481;-72
2023/08/03 08:46:19;;;;;;;1.33;0.82;;;20.50;77.50;;;;;;5021935;28;20450;-73
2023/08/03 08:48:45;;;;;;;10.18;1.42;;;20.50;77.60;;;;;;5023341;28;20044;-72
2023/08/03 08:51:10;;;;;;;5.15;0.90;;;20.40;78.40;;;;;;5025180;28;20703;-72
2023/08/03 08:53:36;;;;;;;2.13;0.70;;;20.40;77.80;;;;;;5005604;28;20065;-72
2023/08/03 08:56:02;;;;;;;1.13;0.65;;;20.30;78.20;;;;;;5024213;28;20103;-72
2023/08/03 08:58:27;;;;;;;2.28;0.60;;;20.10;78.70;;;;;;5022523;28;20058;-72
2023/08/03 09:00:53;;;;;;;1.55;0.80;;;20.00;78.90;;;;;;5020992;28;20144;-71
2023/08/03 09:03:19;;;;;;;1.00;0.63;;;20.00;79.40;;;;;;5019159;28;20166;-71
2023/08/03 09:05:45;;;;;;;1.27;0.65;;;20.00;79.60;;;;;;5022374;28;20046;-72
2023/08/03 09:08:14;;;;;;;0.75;0.50;;;20.00;79.50;;;;;;5023579;28;20130;-71
2023/08/03 09:10:55;;;;;;;0.93;0.65;;;20.00;79.30;;;;;;5023475;28;20064;-71
2023/08/03 09:13:31;;;;;;;1.52;0.60;;;20.00;79.70;;;;;;5020576;28;20041;-73
2023/08/03 09:15:57;;;;;;;0.77;0.60;;;19.90;79.70;;;;;;5022334;28;20042;-72
2023/08/03 09:18:25;;;;;;;0.68;0.50;;;19.90;79.60;;;;;;5021994;28;20194;-72
2023/08/03 09:20:50;;;;;;;1.33;0.50;;;19.90;79.60;;;;;;5024584;28;20048;-72
2023/08/03 09:23:30;;;;;;;1.40;0.60;;;19.90;79.40;;;;;;5023602;28;22054;-72
2023/08/03 09:25:55;;;;;;;0.75;0.60;;;19.90;79.50;;;;;;5021200;28;20056;-72
2023/08/03 09:28:32;;;;;;;1.55;0.70;;;19.90;79.30;;;;;;5022496;28;20049;-72
2023/08/03 09:30:58;;;;;;;0.88;0.77;;;19.80;79.40;;;;;;5022933;28;20045;-72
2023/08/03 09:33:23;;;;;;;1.05;0.60;;;19.80;79.20;;;;;;5006699;28;20049;-72
2023/08/03 09:35:49;;;;;;;2.00;0.60;;;19.90;80.10;;;;;;5022985;28;20048;-72
2023/08/03 09:38:24;;;;;;;1.00;0.60;;;19.90;79.40;;;;;;5038854;28;20136;-75
2023/08/03 09:40:50;;;;;;;1.40;0.63;;;19.80;79.50;;;;;;5020461;28;20042;-72
2023/08/03 09:43:16;;;;;;;0.80;0.60;;;19.80;79.40;;;;;;5017433;28;20633;-73
2023/08/03 09:45:42;;;;;;;1.48;0.70;;;19.90;79.20;;;;;;5051076;28;20047;-73
2023/08/03 09:48:07;;;;;;;1.20;0.60;;;19.90;79.00;;;;;;4987732;28;20045;-72
2023/08/03 09:50:33;;;;;;;2.85;0.90;;;19.90;79.20;;;;;;5019561;28;20529;-72
2023/08/03 09:52:59;;;;;;;1.20;0.73;;;19.90;79.20;;;;;;5006642;28;20129;-72
2023/08/03 09:55:28;;;;;;;1.10;0.82;;;19.90;78.80;;;;;;5021165;28;20412;-73
2023/08/03 09:58:03;;;;;;;1.02;0.60;;;19.90;78.90;;;;;;5005985;28;20068;-73
2023/08/03 10:00:29;;;;;;;0.60;0.52;;;19.90;79.20;;;;;;5018952;28;20099;-73
2023/08/03 10:03:01;;;;;;;0.63;0.60;;;19.90;78.60;;;;;;5003993;28;20065;-72
2023/08/03 10:05:26;;;;;;;3.03;1.02;;;19.90;79.00;;;;;;5004314;28;20045;-73
2023/08/03 10:07:57;;;;;;;1.55;0.90;;;19.90;78.80;;;;;;5005682;28;20053;-72
2023/08/03 10:10:24;;;;;;;2.33;0.77;;;19.90;79.10;;;;;;5020730;28;20049;-72
2023/08/03 10:12:56;;;;;;;1.45;0.70;;;20.00;78.40;;;;;;5022468;28;20042;-72
2023/08/03 10:15:22;;;;;;;1.52;0.77;;;19.90;78.60;;;;;;5008311;28;20044;-73
2023/08/03 10:17:47;;;;;;;2.00;0.80;;;19.90;78.50;;;;;;5023418;28;20045;-72
2023/08/03 10:20:13;;;;;;;1.40;0.70;;;19.90;78.40;;;;;;5008661;28;20046;-72
2023/08/03 10:23:10;;;;;;;1.00;0.55;;;20.00;78.40;;;;;;5025220;28;20127;-72
2023/08/03 10:25:52;;;;;;;1.38;0.75;;;20.10;78.30;;;;;;5022080;28;20049;-72
2023/08/03 10:28:18;;;;;;;1.00;0.77;;;19.90;79.00;;;;;;5006129;28;20124;-75
2023/08/03 10:31:07;;;;;;;0.82;0.70;;;19.90;79.20;;;;;;5010987;28;20495;-72
2023/08/03 10:33:49;;;;;;;1.38;0.70;;;20.00;79.50;;;;;;5023409;28;20041;-72
2023/08/03 10:36:29;;;;;;;2.05;0.70;;;20.00;79.80;;;;;;5025582;28;20042;-72
2023/08/03 10:39:05;;;;;;;1.55;0.50;;;20.10;79.70;;;;;;5023401;28;20069;-72
2023/08/03 10:41:38;;;;;;;1.88;0.90;;;20.20;79.60;;;;;;5009461;28;20042;-72
2023/08/03 10:44:07;;;;;;;4.57;0.80;;;20.30;79.50;;;;;;5026585;28;20045;-73
2023/08/03 10:46:40;;;;;;;1.80;0.80;;;20.20;80.00;;;;;;5022110;28;20049;-72
2023/08/03 10:49:18;;;;;;;2.40;1.00;;;20.30;80.20;;;;;;5025535;28;20069;-72
2023/08/03 10:51:46;;;;;;;1.10;0.93;;;20.40;80.50;;;;;;5020425;28;20789;-72
2023/08/03 10:54:12;;;;;;;1.30;0.80;;;20.40;80.50;;;;;;5024298;28;20049;-72
2023/08/03 10:56:37;;;;;;;1.70;0.90;;;20.30;81.10;;;;;;5028513;28;20389;-72
2023/08/03 10:59:03;;;;;;;2.88;0.90;;;20.30;81.40;;;;;;5025442;28;20442;-73
2023/08/03 11:01:29;;;;;;;2.67;1.15;;;20.30;81.80;;;;;;5009517;28;20041;-73
2023/08/03 11:03:55;;;;;;;7.32;1.83;;;20.30;81.70;;;;;;5023118;28;20046;-74
2023/08/03 11:06:20;;;;;;;4.55;1.95;;;20.30;82.00;;;;;;5025214;28;20072;-75
2023/08/03 11:08:46;;;;;;;4.28;1.55;;;20.50;81.50;;;;;;5024550;28;20049;-74
2023/08/03 11:11:12;;;;;;;3.28;1.67;;;20.50;81.50;;;;;;4674325;28;9999835;-74
2023/08/03 11:13:38;;;;;;;4.38;2.13;;;20.60;81.20;;;;;;5003292;28;20080;-75
2023/08/03 11:16:04;;;;;;;2.95;1.30;;;20.60;81.10;;;;;;5006330;28;20053;-75
2023/08/03 11:18:30;;;;;;;3.95;1.60;;;20.70;81.00;;;;;;5005398;28;20068;-74
2023/08/03 11:20:56;;;;;;;3.47;1.50;;;20.70;81.10;;;;;;5019436;28;20045;-74
2023/08/03 11:23:21;;;;;;;3.95;1.52;;;20.80;81.00;;;;;;5021098;28;20417;-74
2023/08/03 11:25:47;;;;;;;3.35;1.65;;;20.80;80.70;;;;;;4984651;28;20054;-73
2023/08/03 11:28:18;;;;;;;2.50;1.75;;;20.80;80.60;;;;;;5019852;28;20053;-73
2023/08/03 11:30:45;;;;;;;4.95;1.30;;;20.80;80.20;;;;;;5019736;28;20052;-73
2023/08/03 11:33:14;;;;;;;2.40;1.50;;;20.80;80.10;;;;;;5019651;28;20056;-73
2023/08/03 11:35:39;;;;;;;3.80;1.58;;;20.80;79.80;;;;;;5020517;28;20127;-74
2023/08/03 11:38:08;;;;;;;1.70;1.00;;;20.90;79.70;;;;;;4988080;28;20123;-80
2023/08/03 11:40:34;;;;;;;2.08;1.27;;;20.90;79.50;;;;;;5018508;28;20485;-79
2023/08/03 11:43:01;;;;;;;1.67;1.13;;;20.90;79.10;;;;;;5021775;28;20553;-80
2023/08/03 11:45:28;;;;;;;1.55;1.17;;;20.90;79.00;;;;;;5003622;28;20046;-78
2023/08/03 11:47:54;;;;;;;2.70;1.35;;;21.00;79.00;;;;;;5004565;28;20060;-78
2023/08/03 11:50:20;;;;;;;2.33;1.05;;;21.00;78.90;;;;;;5003747;28;20417;-79
2023/08/03 11:52:46;;;;;;;1.35;0.98;;;21.00;78.60;;;;;;5003376;28;20045;-79
2023/08/03 11:55:37;;;;;;;2.88;1.20;;;21.00;78.80;;;;;;5021948;28;20130;-83
2023/08/03 11:58:08;;;;;;;2.67;1.13;;;21.00;78.50;;;;;;5013701;28;20148;-83
2023/08/03 12:00:34;;;;;;;2.55;1.20;;;21.00;78.50;;;;;;5001555;28;20046;-82
2023/08/03 12:03:00;;;;;;;2.70;1.27;;;21.00;78.60;;;;;;5021748;28;20090;-82
2023/08/03 12:05:26;;;;;;;2.35;1.30;;;21.00;78.60;;;;;;5023182;28;20041;-82
2023/08/03 12:07:55;;;;;;;1.65;0.82;;;21.00;78.40;;;;;;5003506;28;20041;-82
2023/08/03 12:10:20;;;;;;;1.35;1.17;;;21.10;78.50;;;;;;5005446;28;20427;-85
2023/08/03 12:12:46;;;;;;;2.13;1.10;;;21.10;78.40;;;;;;5018550;28;20056;-81
2023/08/03 12:15:11;;;;;;;1.48;0.80;;;21.10;78.30;;;;;;5020085;28;20565;-80
2023/08/03 12:17:37;;;;;;;1.42;1.00;;;21.10;78.30;;;;;;5017998;28;20056;-83
2023/08/03 12:20:03;;;;;;;1.23;1.00;;;21.10;78.20;;;;;;5022658;28;20493;-82
2023/08/03 12:22:29;;;;;;;0.80;0.80;;;21.10;78.30;;;;;;5015845;28;20041;-80
2023/08/03 12:24:54;;;;;;;1.40;1.10;;;21.10;78.20;;;;;;5019146;28;20049;-80
2023/08/03 12:27:20;;;;;;;1.98;1.05;;;21.10;78.20;;;;;;5019279;28;20048;-80
2023/08/03 12:29:45;;;;;;;1.92;1.10;;;21.10;78.30;;;;;;4982983;28;20572;-81
2023/08/03 12:32:11;;;;;;;1.50;0.85;;;21.10;77.90;;;;;;5023693;28;20030;-81
2023/08/03 12:34:37;;;;;;;2.45;0.93;;;21.20;78.30;;;;;;5022905;28;20041;-84
2023/08/03 12:37:03;;;;;;;1.33;0.90;;;21.10;79.10;;;;;;5019496;28;20461;-83
2023/08/03 12:39:29;;;;;;;0.85;0.75;;;21.20;79.60;;;;;;5023717;28;20053;-86
2023/08/03 12:41:54;;;;;;;2.65;1.00;;;21.20;78.90;;;;;;5022253;28;20411;-82